Pilot Magazine UKGA

About You

Log In Register UKGA membership

Flight planning

Flight planning New flightplan NOTAM map LARS map & NOTAMs Danger area, mil. & TRA activations Weather map GPS route download Find waypoints Your waypoints New waypoint

Forums

Forums Currently discussing "NOTAM Map"

Other items

Articles Events Links News Surveys Tips Other users Feedback UKGA membership About UKGA

METARs

UK

EGAA 160120Z 18004KT CAVOK 16/13 Q1018
EGAC 160120Z AUTO 21006KT 9999 NCD 17/13 Q1018
EGAE 151950Z 02004KT CAVOK 19/15 Q1019
EGBB 160120Z 18001KT CAVOK 13/11 Q1020
EGBJ 151720Z 04005KT 350V090 9999 FEW044 23/12 Q1020
EGCC 160120Z AUTO VRB02KT 9999 BKN046 16/13 Q1020
EGCK 160120Z AUTO 18004KT 9999 NCD 14/13 Q1020
EGCN 160120Z 16002KT CAVOK 13/12 Q1020
EGDM 160050Z AUTO 22004KT 9999 NCD 11/10 Q1021
EGDR 160050Z 08005KT CAVOK 13/11 Q1020 BLU NOSIG RMK BLU BLU
EGDY 160050Z 12003KT CAVOK 11/09 Q1021 BLU
EGEC 151720Z 15012KT CAVOK 17/13 Q1019
EGFF 160120Z AUTO 20003KT 9999 NCD 16/14 Q1020
EGGD 160120Z AUTO 17006KT 9999 NCD 13/11 Q1021
EGGP 160120Z 17003KT CAVOK 18/16 Q1020
EGGW 160120Z AUTO 19005KT 9999 NCD 12/10 Q1021
EGHC 151720Z 12014KT 9999 FEW020 18/13 Q1021
EGHE 151650Z 14013KT CAVOK 19/13 Q1021
EGHH 152220Z 00000KT CAVOK 13/10 Q1021
EGHI 152120Z 23005KT CAVOK 14/09 Q1022 
EGHQ 152050Z 18004KT 9999 SCT042 17/14 Q1022
EGJA 151750Z 08012KT CAVOK 16/11 Q1021
EGJB 160050Z 08005KT CAVOK 12/10 Q1021
EGJJ 160120Z AUTO 08005KT 9999 NCD 12/11 Q1020
EGKA 151850Z 15006KT CAVOK 17/10 Q1021
EGKB 152120Z 16006KT CAVOK 14/12 Q1022 
EGKK 160120Z VRB01KT CAVOK 12/11 Q1021
EGLC 160120Z AUTO 24005KT 9999 NCD 15/12 Q1021
EGLF 160120Z AUTO 18002KT 9999 NCD 10/08 Q1021
EGLL 160120Z AUTO 21005KT 9999 NCD 14/10 Q1021
EGMC 160120Z 23002KT CAVOK 11/10 Q1021
EGMD 160120Z AUTO 32005KT 9999 NCD 09/09 Q1021
EGNC 151650Z 30007KT 9999 FEW035 SCT045 20/15 Q1020
EGNH 152050Z 33004KT CAVOK 19/13 Q1020
EGNJ 160120Z AUTO 23003KT 9999 NCD 11/10 Q1020
EGNM 160120Z 28002KT CAVOK 14/12 Q1020
EGNO 151750Z 30008KT 260V330 9999 FEW043 22/14 Q1020
EGNR 151950Z 33005KT 9999 SCT047 20/14 Q1021
EGNS 152350Z 03003KT CAVOK 14/13 Q1019
EGNT 160120Z 22002KT 9999 FEW030 11/11 Q1019
EGNV 152050Z VRB03KT CAVOK 15/12 Q1020
EGNX 160120Z 22006KT 200V260 CAVOK 14/11 Q1020
EGOM 160050Z AUTO 15002KT 2700 NCD 11/11 Q1019
EGOP 160050Z AUTO 32007KT 9999 // FEW050/// SCT200/// 15/13 Q1020
EGOS 160050Z AUTO 09002KT 9999 SCT060/// 17/13 Q1020
EGOV 160050Z AUTO 19007KT 9999 NCD 15/14 Q1020
EGOW 151620Z 33009KT 9999 FEW045 22/14 Q1021 RMK BLU
EGPA 160120Z AUTO VRB01KT 9999 NCD 11/10 Q1018
EGPB 160120Z AUTO 06001KT 0200 FG OVC002/// 12/12 Q1019
EGPC 160120Z AUTO 00000KT 9999 NCD 10/10 Q1018
EGPD 160120Z AUTO 10002KT 9999 NCD 14/11 Q1018
EGPE 160120Z AUTO 20001KT 9999 NCD 09/09 Q1018
EGPF 160120Z AUTO VRB01KT 5000 BR NCD 12/11 Q1019
EGPH 160120Z 29002KT CAVOK 11/11 Q1018
EGPI 160050Z AUTO VRB02KT 9999 NCD 12/12 Q1018
EGPK 160050Z 11003KT 9999 FEW040 13/12 Q1019
EGPL 160120Z AUTO 16004KT 9999 NCD 14/14 Q1017
EGPM 160120Z AUTO VRB02KT 4500 BR BKN000/// OVC026/// 12/11 Q1018
EGPN 151920Z 08007KT 9999 FEW030 18/15 Q1019
EGPO 160120Z AUTO 00000KT 9999 NCD 12/11 Q1017
EGPU 160050Z AUTO 16004KT 8000 NCD 14/13 Q1017
EGQK 160050Z AUTO 24007KT 9999 OVC007/// 13/12 Q1018
EGQL 160050Z 00000KT 8000 BR SKC 12/12 Q1018 BLU
EGQM 160050Z AUTO 22006KT //// // FEW047/// 13/12 Q1019
EGQS 160050Z 25008KT 9999 SCT004 OVC005 14/13 Q1018 RMK YLO2
EGSC 151650Z 34004KT 290V010 9999 BKN032 18/10 Q1022
EGSH 160120Z AUTO 22003KT 9999 NCD 11/10 Q1020
EGSS 160120Z AUTO 23004KT 9999 NCD 11/10 Q1021
EGTC 151650Z VRB03KT 9999 FEW035 20/11 Q1022
EGTE 160120Z 04003KT CAVOK 11/11 Q1021
EGTK 152120Z 00000KT CAVOK 15/11 Q1021
EGUB 160050Z AUTO 18003KT 9999 // NCD 10/09 Q1021
EGUL 160056Z AUTO 00000KT 9999 CLR 09/07 A3012 RMK AO2 SLP203 T00920073 $
EGUN 160056Z 00000KT 9999 CLR 10/10 A3013 RMK AO2A SLP206 T01040104 $
EGUW 160050Z AUTO 24004KT 9000 BR NCD 10/10 Q1020
EGVA 160056Z AUTO M M M CLR 12/11 A3014 RMK AO2 SLP209 T01210108 RVRNO $
EGVN 160050Z AUTO 32001KT 9999 NCD 12/10 Q1021
EGVO 160050Z 19004KT CAVOK 11/10 Q1021 BLU RMK BLU
EGVP 160050Z AUTO 15002KT 9999 // NCD 12/10 Q1021
EGWC 151550Z 07003KT 9999 SCT035 22/14 Q1021 RMK BLU
EGWU 160050Z AUTO 19003KT 9999 // NCD 13/10 Q1021
EGXC 160050Z 11001KT CAVOK 12/11 Q1020 RMK BLU
EGXE 160050Z AUTO 16004KT 9999 NCD 13/12 Q1020
EGXP 160050Z AUTO 20004KT 9999 // NCD 14/12 Q1020
EGXS 160050Z AUTO 17004KT 9999 // NCD 12/11 Q1020
EGXT 160050Z AUTO 25006KT 9999 NCD 12/10 Q1020
EGXU 160050Z AUTO 01002KT 9999 // NCD 13/11 Q1020
EGXV 160050Z AUTO 00000KT 9999 NCD 10/09 Q1020
EGXW 160050Z AUTO 23008KT 9999 NCD 15/11 Q1020
EGXZ 160050Z AUTO 12005KT 4700 NCD 11/10 Q1020
EGYD 160050Z AUTO 26011KT 9999 // NCD 14/11 Q1020
EGYE 151350Z 02004KT 9999 SCT030 19/// Q1023 RMK BLU
EGYH 151450Z 19005KT 9999 SCT027 19/12 Q1022 BLU
EGYM 160050Z AUTO 21002KT 9999 NCD 11/10 Q1020

About You

Log In Register UKGA membership

Airfields

Interactive airfield map Search by name Search by postcode Search by location Fuel prices Pilot reviews Latest
(No favourites selected)

Flight planning

Flight planning New flightplan NOTAM map LARS map & NOTAMs Danger area, mil. & TRA activations Weather map GPS route download Find waypoints Your waypoints New waypoint

Forums

Forums Currently discussing "NOTAM Map"

Other items

Articles Events Links News Surveys Tips Other users Feedback UKGA membership About UKGA